sensor_id;sensor_type;location;lat;lon;timestamp;pressure;altitude;pressure_sealevel;temperature;humidity
38022;BME280;23832;43.216;27.946;2022-09-20T00:01:05;100578.75;;;18.56;65.32
38022;BME280;23832;43.216;27.946;2022-09-20T00:03:08;100573.88;;;18.53;65.36
38022;BME280;23832;43.216;27.946;2022-09-20T00:05:11;100580.47;;;18.51;65.28
38022;BME280;23832;43.216;27.946;2022-09-20T00:07:12;100583.38;;;18.49;65.32
38022;BME280;23832;43.216;27.946;2022-09-20T00:09:14;100578.03;;;18.49;65.41
38022;BME280;23832;43.216;27.946;2022-09-20T00:11:18;100579.88;;;18.49;65.33
38022;BME280;23832;43.216;27.946;2022-09-20T00:13:21;100580.56;;;18.44;65.17
38022;BME280;23832;43.216;27.946;2022-09-20T00:15:23;100567.22;;;18.44;65.36
38022;BME280;23832;43.216;27.946;2022-09-20T00:17:25;100568.28;;;18.43;65.31
38022;BME280;23832;43.216;27.946;2022-09-20T00:19:27;100573.63;;;18.43;65.52
38022;BME280;23832;43.216;27.946;2022-09-20T00:21:30;100552.25;;;18.43;65.73
38022;BME280;23832;43.216;27.946;2022-09-20T00:23:32;100561.75;;;18.39;65.34
38022;BME280;23832;43.216;27.946;2022-09-20T00:25:35;100558.25;;;18.38;65.49
38022;BME280;23832;43.216;27.946;2022-09-20T00:27:37;100558.16;;;18.33;65.87
38022;BME280;23832;43.216;27.946;2022-09-20T00:29:41;100539.66;;;18.32;66.05
38022;BME280;23832;43.216;27.946;2022-09-20T00:31:42;100534.78;;;18.29;66.21
38022;BME280;23832;43.216;27.946;2022-09-20T00:33:44;100535.59;;;18.29;66.24
38022;BME280;23832;43.216;27.946;2022-09-20T00:36:04;100536.88;;;18.27;66.47
38022;BME280;23832;43.216;27.946;2022-09-20T00:38:06;100531.97;;;18.24;66.27
38022;BME280;23832;43.216;27.946;2022-09-20T00:40:11;100529.91;;;18.26;66.36
38022;BME280;23832;43.216;27.946;2022-09-20T00:42:13;100518.84;;;18.22;66.63
38022;BME280;23832;43.216;27.946;2022-09-20T00:44:43;100523.59;;;18.20;66.52
38022;BME280;23832;43.216;27.946;2022-09-20T00:46:45;100519.97;;;18.14;67.46
38022;BME280;23832;43.216;27.946;2022-09-20T00:48:48;100518.13;;;18.15;67.40
38022;BME280;23832;43.216;27.946;2022-09-20T00:50:54;100513.63;;;18.15;67.39
38022;BME280;23832;43.216;27.946;2022-09-20T00:53:03;100511.53;;;18.18;67.34
38022;BME280;23832;43.216;27.946;2022-09-20T00:55:07;100482.00;;;18.01;67.23
38022;BME280;23832;43.216;27.946;2022-09-20T00:57:09;100503.38;;;18.12;67.18
38022;BME280;23832;43.216;27.946;2022-09-20T00:59:14;100505.63;;;18.15;66.99
38022;BME280;23832;43.216;27.946;2022-09-20T01:01:19;100505.00;;;18.13;67.32
38022;BME280;23832;43.216;27.946;2022-09-20T01:03:21;100502.97;;;18.15;67.37
38022;BME280;23832;43.216;27.946;2022-09-20T01:05:25;100500.28;;;18.15;67.28
38022;BME280;23832;43.216;27.946;2022-09-20T01:07:28;100501.91;;;18.17;67.43
38022;BME280;23832;43.216;27.946;2022-09-20T01:09:30;100494.09;;;18.15;67.07
38022;BME280;23832;43.216;27.946;2022-09-20T01:11:33;100499.09;;;18.11;67.34
38022;BME280;23832;43.216;27.946;2022-09-20T01:13:35;100504.31;;;18.06;66.89
38022;BME280;23832;43.216;27.946;2022-09-20T01:15:38;100491.97;;;18.05;67.29
38022;BME280;23832;43.216;27.946;2022-09-20T01:17:45;100498.13;;;18.06;67.30
38022;BME280;23832;43.216;27.946;2022-09-20T01:19:57;100498.38;;;18.04;67.34
38022;BME280;23832;43.216;27.946;2022-09-20T01:22:05;100508.44;;;18.02;67.10
38022;BME280;23832;43.216;27.946;2022-09-20T01:24:15;100508.44;;;18.02;67.49
38022;BME280;23832;43.216;27.946;2022-09-20T01:26:32;100512.16;;;18.01;67.62
38022;BME280;23832;43.216;27.946;2022-09-20T01:28:43;100513.19;;;18.00;68.10
38022;BME280;23832;43.216;27.946;2022-09-20T01:30:50;100497.44;;;17.99;67.68
38022;BME280;23832;43.216;27.946;2022-09-20T01:33:03;100509.34;;;17.96;67.92
38022;BME280;23832;43.216;27.946;2022-09-20T01:35:10;100514.31;;;17.93;68.62
38022;BME280;23832;43.216;27.946;2022-09-20T01:37:19;100523.94;;;17.94;68.91
38022;BME280;23832;43.216;27.946;2022-09-20T01:39:33;100507.72;;;17.95;69.04
38022;BME280;23832;43.216;27.946;2022-09-20T01:41:43;100526.59;;;17.94;69.42
38022;BME280;23832;43.216;27.946;2022-09-20T01:43:51;100532.63;;;17.89;69.27
38022;BME280;23832;43.216;27.946;2022-09-20T01:45:53;100527.19;;;17.96;69.19
38022;BME280;23832;43.216;27.946;2022-09-20T01:48:07;100529.44;;;17.99;68.87
38022;BME280;23832;43.216;27.946;2022-09-20T01:50:21;100523.94;;;17.94;69.20
38022;BME280;23832;43.216;27.946;2022-09-20T01:55:41;100507.81;;;17.89;69.11
38022;BME280;23832;43.216;27.946;2022-09-20T01:58:09;100527.59;;;17.81;69.75
38022;BME280;23832;43.216;27.946;2022-09-20T02:00:20;100517.81;;;17.75;70.39
38022;BME280;23832;43.216;27.946;2022-09-20T02:02:39;100509.16;;;17.79;70.52
38022;BME280;23832;43.216;27.946;2022-09-20T02:05:02;100510.41;;;17.77;70.94
38022;BME280;23832;43.216;27.946;2022-09-20T02:07:20;100503.22;;;17.77;70.86
38022;BME280;23832;43.216;27.946;2022-09-20T02:09:48;100498.91;;;17.76;71.18
38022;BME280;23832;43.216;27.946;2022-09-20T02:12:13;100514.09;;;17.76;71.51
38022;BME280;23832;43.216;27.946;2022-09-20T02:14:31;100507.72;;;17.77;71.57
38022;BME280;23832;43.216;27.946;2022-09-20T02:16:45;100502.97;;;17.79;71.03
38022;BME280;23832;43.216;27.946;2022-09-20T02:19:05;100500.31;;;17.79;71.18
38022;BME280;23832;43.216;27.946;2022-09-20T02:21:16;100504.47;;;17.75;71.09
38022;BME280;23832;43.216;27.946;2022-09-20T02:23:35;100519.22;;;17.77;70.99
38022;BME280;23832;43.216;27.946;2022-09-20T02:25:48;100528.00;;;17.78;71.65
38022;BME280;23832;43.216;27.946;2022-09-20T02:28:06;100539.31;;;17.80;71.86
38022;BME280;23832;43.216;27.946;2022-09-20T02:30:15;100542.06;;;17.67;73.43
38022;BME280;23832;43.216;27.946;2022-09-20T02:32:28;100535.06;;;17.72;73.16
38022;BME280;23832;43.216;27.946;2022-09-20T02:34:49;100545.63;;;17.79;72.47
38022;BME280;23832;43.216;27.946;2022-09-20T02:36:55;100551.47;;;17.69;73.27
38022;BME280;23832;43.216;27.946;2022-09-20T02:39:09;100546.09;;;17.76;72.90
38022;BME280;23832;43.216;27.946;2022-09-20T02:41:46;100558.09;;;17.85;71.99
38022;BME280;23832;43.216;27.946;2022-09-20T02:43:57;100552.53;;;17.86;72.91
38022;BME280;23832;43.216;27.946;2022-09-20T02:46:07;100550.84;;;17.92;72.60
38022;BME280;23832;43.216;27.946;2022-09-20T02:48:14;100542.25;;;17.90;71.95
38022;BME280;23832;43.216;27.946;2022-09-20T02:50:30;100560.00;;;17.96;71.01
38022;BME280;23832;43.216;27.946;2022-09-20T02:52:43;100555.72;;;17.95;71.13
38022;BME280;23832;43.216;27.946;2022-09-20T02:54:56;100565.16;;;17.98;70.43
38022;BME280;23832;43.216;27.946;2022-09-20T02:57:04;100556.91;;;17.99;70.23
38022;BME280;23832;43.216;27.946;2022-09-20T02:59:19;100559.34;;;18.01;70.21
38022;BME280;23832;43.216;27.946;2022-09-20T03:01:31;100544.97;;;18.02;70.27
38022;BME280;23832;43.216;27.946;2022-09-20T03:03:43;100554.59;;;18.03;69.67
38022;BME280;23832;43.216;27.946;2022-09-20T03:05:59;100557.28;;;18.03;69.65
38022;BME280;23832;43.216;27.946;2022-09-20T03:08:13;100552.41;;;18.00;69.79
38022;BME280;23832;43.216;27.946;2022-09-20T03:10:20;100553.78;;;18.02;69.66
38022;BME280;23832;43.216;27.946;2022-09-20T03:12:34;100555.66;;;18.02;69.27
38022;BME280;23832;43.216;27.946;2022-09-20T03:14:43;100569.22;;;18.00;69.33
38022;BME280;23832;43.216;27.946;2022-09-20T03:17:00;100561.22;;;18.00;69.19
38022;BME280;23832;43.216;27.946;2022-09-20T03:19:14;100571.28;;;17.98;69.34
38022;BME280;23832;43.216;27.946;2022-09-20T03:21:28;100575.66;;;17.93;69.98
38022;BME280;23832;43.216;27.946;2022-09-20T03:23:43;100570.47;;;17.98;69.99
38022;BME280;23832;43.216;27.946;2022-09-20T03:25:53;100565.97;;;17.98;70.00
38022;BME280;23832;43.216;27.946;2022-09-20T03:28:08;100575.81;;;17.98;69.53
38022;BME280;23832;43.216;27.946;2022-09-20T03:30:23;100579.94;;;17.94;69.37
38022;BME280;23832;43.216;27.946;2022-09-20T03:32:41;100578.38;;;17.86;70.08
38022;BME280;23832;43.216;27.946;2022-09-20T03:34:56;100576.19;;;17.83;70.08
38022;BME280;23832;43.216;27.946;2022-09-20T03:37:09;100572.94;;;17.81;70.52
38022;BME280;23832;43.216;27.946;2022-09-20T03:39:27;100579.28;;;17.80;70.72
38022;BME280;23832;43.216;27.946;2022-09-20T03:41:47;100578.09;;;17.76;71.50
38022;BME280;23832;43.216;27.946;2022-09-20T03:44:03;100579.13;;;17.75;72.46
38022;BME280;23832;43.216;27.946;2022-09-20T03:46:16;100590.63;;;17.75;73.49
38022;BME280;23832;43.216;27.946;2022-09-20T03:51:06;100579.59;;;17.72;73.43
38022;BME280;23832;43.216;27.946;2022-09-20T03:53:37;100583.88;;;17.73;73.18
38022;BME280;23832;43.216;27.946;2022-09-20T03:55:58;100586.53;;;17.73;73.51
38022;BME280;23832;43.216;27.946;2022-09-20T03:58:15;100591.28;;;17.71;73.68
38022;BME280;23832;43.216;27.946;2022-09-20T04:00:24;100595.97;;;17.69;74.17
38022;BME280;23832;43.216;27.946;2022-09-20T04:02:46;100598.44;;;17.70;73.60
38022;BME280;23832;43.216;27.946;2022-09-20T04:04:56;100592.94;;;17.65;73.98
38022;BME280;23832;43.216;27.946;2022-09-20T04:07:20;100605.63;;;17.70;73.95
38022;BME280;23832;43.216;27.946;2022-09-20T04:12:13;100601.16;;;17.64;74.84
38022;BME280;23832;43.216;27.946;2022-09-20T04:14:28;100608.56;;;17.62;75.26
38022;BME280;23832;43.216;27.946;2022-09-20T04:16:39;100623.31;;;17.64;74.68
38022;BME280;23832;43.216;27.946;2022-09-20T04:18:47;100607.53;;;17.63;74.17
38022;BME280;23832;43.216;27.946;2022-09-20T04:20:56;100612.25;;;17.60;75.13
38022;BME280;23832;43.216;27.946;2022-09-20T04:23:10;100614.31;;;17.58;75.13
38022;BME280;23832;43.216;27.946;2022-09-20T04:25:17;100610.47;;;17.54;74.96
38022;BME280;23832;43.216;27.946;2022-09-20T04:27:24;100612.34;;;17.54;75.31
38022;BME280;23832;43.216;27.946;2022-09-20T04:29:33;100620.56;;;17.52;75.98
38022;BME280;23832;43.216;27.946;2022-09-20T04:31:41;100619.16;;;17.43;76.04
38022;BME280;23832;43.216;27.946;2022-09-20T04:33:47;100616.50;;;17.43;76.59
38022;BME280;23832;43.216;27.946;2022-09-20T04:35:59;100627.78;;;17.45;76.50
38022;BME280;23832;43.216;27.946;2022-09-20T04:38:21;100622.28;;;17.40;76.79
38022;BME280;23832;43.216;27.946;2022-09-20T04:40:30;100625.59;;;17.36;77.24
38022;BME280;23832;43.216;27.946;2022-09-20T04:48:37;100615.81;;;17.29;80.13
38022;BME280;23832;43.216;27.946;2022-09-20T04:56:27;100615.53;;;17.13;81.00
38022;BME280;23832;43.216;27.946;2022-09-20T04:58:42;100616.38;;;17.07;80.30
38022;BME280;23832;43.216;27.946;2022-09-20T05:00:56;100628.94;;;16.99;82.87
38022;BME280;23832;43.216;27.946;2022-09-20T05:03:24;100625.19;;;17.07;82.36
38022;BME280;23832;43.216;27.946;2022-09-20T05:05:34;100619.53;;;16.97;83.58
38022;BME280;23832;43.216;27.946;2022-09-20T05:11:06;100622.91;;;17.11;82.28
38022;BME280;23832;43.216;27.946;2022-09-20T05:13:28;100619.59;;;17.15;81.64
38022;BME280;23832;43.216;27.946;2022-09-20T05:15:38;100618.38;;;17.18;81.45
38022;BME280;23832;43.216;27.946;2022-09-20T05:18:04;100616.88;;;17.22;80.02
38022;BME280;23832;43.216;27.946;2022-09-20T05:20:31;100616.66;;;17.23;80.11
38022;BME280;23832;43.216;27.946;2022-09-20T05:25:37;100616.81;;;17.35;82.74
38022;BME280;23832;43.216;27.946;2022-09-20T05:27:45;100616.94;;;17.40;82.01
38022;BME280;23832;43.216;27.946;2022-09-20T05:30:00;100619.78;;;17.45;80.25
38022;BME280;23832;43.216;27.946;2022-09-20T05:32:08;100619.94;;;17.50;80.79
38022;BME280;23832;43.216;27.946;2022-09-20T05:34:19;100629.13;;;17.54;78.91
38022;BME280;23832;43.216;27.946;2022-09-20T05:36:29;100623.34;;;17.57;78.83
38022;BME280;23832;43.216;27.946;2022-09-20T05:38:44;100626.63;;;17.59;77.30
38022;BME280;23832;43.216;27.946;2022-09-20T05:41:01;100634.78;;;17.65;76.52
38022;BME280;23832;43.216;27.946;2022-09-20T05:43:08;100639.66;;;17.68;76.10
38022;BME280;23832;43.216;27.946;2022-09-20T05:45:42;100645.50;;;17.83;78.28
38022;BME280;23832;43.216;27.946;2022-09-20T05:47:51;100652.13;;;17.99;77.40
38022;BME280;23832;43.216;27.946;2022-09-20T05:50:07;100655.63;;;18.18;74.98
38022;BME280;23832;43.216;27.946;2022-09-20T05:52:27;100663.84;;;18.34;72.67
38022;BME280;23832;43.216;27.946;2022-09-20T05:57:22;100655.53;;;18.61;68.78
38022;BME280;23832;43.216;27.946;2022-09-20T05:59:36;100645.66;;;18.80;68.20
38022;BME280;23832;43.216;27.946;2022-09-20T06:01:56;100638.75;;;19.02;67.31
38022;BME280;23832;43.216;27.946;2022-09-20T06:04:08;100653.22;;;19.24;66.75
38022;BME280;23832;43.216;27.946;2022-09-20T06:06:20;100656.38;;;19.45;65.52
38022;BME280;23832;43.216;27.946;2022-09-20T06:08:32;100659.81;;;19.64;63.15
38022;BME280;23832;43.216;27.946;2022-09-20T06:10:45;100663.66;;;19.79;61.93
38022;BME280;23832;43.216;27.946;2022-09-20T06:12:59;100670.75;;;19.97;61.73
38022;BME280;23832;43.216;27.946;2022-09-20T06:15:13;100665.50;;;20.14;61.11
38022;BME280;23832;43.216;27.946;2022-09-20T06:17:26;100674.75;;;20.35;60.05
38022;BME280;23832;43.216;27.946;2022-09-20T06:19:39;100673.81;;;20.53;59.58
38022;BME280;23832;43.216;27.946;2022-09-20T06:21:50;100664.28;;;20.74;59.20
38022;BME280;23832;43.216;27.946;2022-09-20T06:23:56;100671.31;;;20.91;58.10
38022;BME280;23832;43.216;27.946;2022-09-20T06:26:01;100675.53;;;21.16;56.67
38022;BME280;23832;43.216;27.946;2022-09-20T06:28:12;100677.44;;;21.32;55.89
38022;BME280;23832;43.216;27.946;2022-09-20T06:30:16;100676.16;;;21.51;55.50
38022;BME280;23832;43.216;27.946;2022-09-20T06:32:19;100678.28;;;21.66;54.57
38022;BME280;23832;43.216;27.946;2022-09-20T06:34:22;100685.00;;;21.86;53.88
38022;BME280;23832;43.216;27.946;2022-09-20T06:36:29;100694.50;;;21.93;52.60
38022;BME280;23832;43.216;27.946;2022-09-20T06:38:54;100684.00;;;21.92;51.11
38022;BME280;23832;43.216;27.946;2022-09-20T06:41:18;100685.41;;;21.94;51.10
38022;BME280;23832;43.216;27.946;2022-09-20T06:43:30;100680.09;;;21.99;50.56
38022;BME280;23832;43.216;27.946;2022-09-20T06:45:31;100663.25;;;22.04;50.39
38022;BME280;23832;43.216;27.946;2022-09-20T06:47:35;100670.41;;;22.15;50.61
38022;BME280;23832;43.216;27.946;2022-09-20T06:49:38;100665.03;;;22.15;50.26
38022;BME280;23832;43.216;27.946;2022-09-20T06:51:41;100673.56;;;22.29;49.92
38022;BME280;23832;43.216;27.946;2022-09-20T06:53:43;100671.97;;;22.33;48.79
38022;BME280;23832;43.216;27.946;2022-09-20T06:55:45;100669.53;;;22.31;48.12
38022;BME280;23832;43.216;27.946;2022-09-20T06:57:48;100671.81;;;22.40;48.65
38022;BME280;23832;43.216;27.946;2022-09-20T06:59:51;100680.34;;;22.58;49.18
38022;BME280;23832;43.216;27.946;2022-09-20T07:01:52;100686.19;;;22.77;48.99
38022;BME280;23832;43.216;27.946;2022-09-20T07:03:54;100659.13;;;22.84;48.41
38022;BME280;23832;43.216;27.946;2022-09-20T07:05:58;100683.47;;;22.94;47.76
38022;BME280;23832;43.216;27.946;2022-09-20T07:08:01;100688.84;;;22.94;47.59
38022;BME280;23832;43.216;27.946;2022-09-20T07:10:03;100682.06;;;22.91;46.95
38022;BME280;23832;43.216;27.946;2022-09-20T07:12:05;100692.28;;;22.89;47.24
38022;BME280;23832;43.216;27.946;2022-09-20T07:14:11;100697.25;;;22.81;46.73
38022;BME280;23832;43.216;27.946;2022-09-20T07:16:15;100689.69;;;22.78;46.87
38022;BME280;23832;43.216;27.946;2022-09-20T07:18:17;100704.66;;;22.69;46.92
38022;BME280;23832;43.216;27.946;2022-09-20T07:20:18;100707.97;;;22.76;47.16
38022;BME280;23832;43.216;27.946;2022-09-20T07:22:22;100705.44;;;22.91;47.32
38022;BME280;23832;43.216;27.946;2022-09-20T07:24:24;100707.19;;;23.02;46.52
38022;BME280;23832;43.216;27.946;2022-09-20T07:26:28;100708.41;;;23.16;46.60
38022;BME280;23832;43.216;27.946;2022-09-20T07:28:31;100705.88;;;23.32;46.78
38022;BME280;23832;43.216;27.946;2022-09-20T07:30:34;100711.41;;;23.52;46.62
38022;BME280;23832;43.216;27.946;2022-09-20T07:32:36;100716.75;;;23.79;46.71
38022;BME280;23832;43.216;27.946;2022-09-20T07:34:38;100716.69;;;24.06;46.66
38022;BME280;23832;43.216;27.946;2022-09-20T07:36:39;100715.00;;;24.37;46.19
38022;BME280;23832;43.216;27.946;2022-09-20T07:38:46;100713.47;;;24.61;43.83
38022;BME280;23832;43.216;27.946;2022-09-20T07:40:53;100713.25;;;24.78;43.11
38022;BME280;23832;43.216;27.946;2022-09-20T07:42:55;100704.69;;;24.97;42.50
38022;BME280;23832;43.216;27.946;2022-09-20T07:44:58;100699.91;;;25.19;41.77
38022;BME280;23832;43.216;27.946;2022-09-20T07:47:02;100693.72;;;25.29;40.57
38022;BME280;23832;43.216;27.946;2022-09-20T07:49:05;100690.22;;;25.43;40.13
38022;BME280;23832;43.216;27.946;2022-09-20T07:51:09;100701.50;;;25.61;40.42
38022;BME280;23832;43.216;27.946;2022-09-20T07:53:12;100705.34;;;25.80;39.65
38022;BME280;23832;43.216;27.946;2022-09-20T07:55:15;100699.34;;;25.98;39.21
38022;BME280;23832;43.216;27.946;2022-09-20T07:57:17;100714.19;;;26.11;38.40
38022;BME280;23832;43.216;27.946;2022-09-20T07:59:19;100699.81;;;26.26;38.19
38022;BME280;23832;43.216;27.946;2022-09-20T08:01:21;100696.81;;;26.38;38.58
38022;BME280;23832;43.216;27.946;2022-09-20T08:03:24;100711.50;;;26.76;38.53
38022;BME280;23832;43.216;27.946;2022-09-20T08:05:26;100706.19;;;27.15;38.11
38022;BME280;23832;43.216;27.946;2022-09-20T08:07:28;100701.84;;;27.48;37.72
38022;BME280;23832;43.216;27.946;2022-09-20T08:09:30;100717.59;;;27.80;36.94
38022;BME280;23832;43.216;27.946;2022-09-20T08:11:34;100717.50;;;28.14;36.44
38022;BME280;23832;43.216;27.946;2022-09-20T08:13:36;100709.34;;;28.43;36.34
38022;BME280;23832;43.216;27.946;2022-09-20T08:15:38;100718.81;;;28.83;36.04
38022;BME280;23832;43.216;27.946;2022-09-20T08:17:40;100700.53;;;29.13;34.79
38022;BME280;23832;43.216;27.946;2022-09-20T08:19:42;100696.19;;;29.31;34.31
38022;BME280;23832;43.216;27.946;2022-09-20T08:21:44;100702.63;;;29.35;33.18
38022;BME280;23832;43.216;27.946;2022-09-20T08:23:46;100700.22;;;29.33;32.80
38022;BME280;23832;43.216;27.946;2022-09-20T08:25:48;100697.63;;;29.42;33.40
38022;BME280;23832;43.216;27.946;2022-09-20T08:27:53;100690.94;;;29.53;32.66
38022;BME280;23832;43.216;27.946;2022-09-20T08:29:55;100691.56;;;29.64;32.32
38022;BME280;23832;43.216;27.946;2022-09-20T08:31:57;100683.81;;;29.71;32.19
38022;BME280;23832;43.216;27.946;2022-09-20T08:34:01;100679.41;;;29.89;32.08
38022;BME280;23832;43.216;27.946;2022-09-20T08:36:04;100681.84;;;30.04;31.44
38022;BME280;23832;43.216;27.946;2022-09-20T08:38:06;100687.72;;;30.25;30.78
38022;BME280;23832;43.216;27.946;2022-09-20T08:40:10;100673.19;;;30.43;31.04
38022;BME280;23832;43.216;27.946;2022-09-20T08:42:23;100673.47;;;30.69;31.13
38022;BME280;23832;43.216;27.946;2022-09-20T08:44:31;100663.53;;;30.87;30.67
38022;BME280;23832;43.216;27.946;2022-09-20T08:46:37;100647.25;;;30.73;29.37
38022;BME280;23832;43.216;27.946;2022-09-20T08:48:40;100655.19;;;30.84;29.41
38022;BME280;23832;43.216;27.946;2022-09-20T08:50:42;100663.84;;;31.08;29.80
38022;BME280;23832;43.216;27.946;2022-09-20T08:52:46;100673.13;;;31.21;29.30
38022;BME280;23832;43.216;27.946;2022-09-20T08:54:49;100665.31;;;31.28;28.58
38022;BME280;23832;43.216;27.946;2022-09-20T08:56:51;100650.94;;;31.36;28.82
38022;BME280;23832;43.216;27.946;2022-09-20T08:58:53;100659.25;;;31.62;28.81
38022;BME280;23832;43.216;27.946;2022-09-20T09:00:57;100660.66;;;31.82;28.31
38022;BME280;23832;43.216;27.946;2022-09-20T09:03:03;100659.56;;;31.91;28.00
38022;BME280;23832;43.216;27.946;2022-09-20T09:05:15;100659.47;;;32.14;28.21
38022;BME280;23832;43.216;27.946;2022-09-20T09:07:23;100653.97;;;32.45;28.51
38022;BME280;23832;43.216;27.946;2022-09-20T09:09:27;100659.41;;;32.80;27.83
38022;BME280;23832;43.216;27.946;2022-09-20T09:11:30;100660.75;;;32.91;26.83
38022;BME280;23832;43.216;27.946;2022-09-20T09:13:38;100658.78;;;32.83;26.52
38022;BME280;23832;43.216;27.946;2022-09-20T09:15:43;100659.78;;;32.87;27.12
38022;BME280;23832;43.216;27.946;2022-09-20T09:17:49;100656.56;;;33.02;27.28
38022;BME280;23832;43.216;27.946;2022-09-20T09:19:52;100652.34;;;33.22;26.80
38022;BME280;23832;43.216;27.946;2022-09-20T09:21:57;100654.91;;;33.36;26.27
38022;BME280;23832;43.216;27.946;2022-09-20T09:24:01;100636.72;;;33.48;25.88
38022;BME280;23832;43.216;27.946;2022-09-20T09:29:19;100627.44;;;33.79;26.19
38022;BME280;23832;43.216;27.946;2022-09-20T09:31:24;100627.06;;;33.98;25.16
38022;BME280;23832;43.216;27.946;2022-09-20T09:33:29;100631.34;;;34.07;25.06
38022;BME280;23832;43.216;27.946;2022-09-20T09:35:34;100636.09;;;34.19;24.54
38022;BME280;23832;43.216;27.946;2022-09-20T09:37:36;100645.22;;;34.23;24.27
38022;BME280;23832;43.216;27.946;2022-09-20T09:39:38;100641.84;;;34.26;23.71
38022;BME280;23832;43.216;27.946;2022-09-20T09:41:41;100636.03;;;34.28;23.91
38022;BME280;23832;43.216;27.946;2022-09-20T09:43:56;100645.00;;;34.37;23.88
38022;BME280;23832;43.216;27.946;2022-09-20T09:46:15;100639.94;;;34.48;23.87
38022;BME280;23832;43.216;27.946;2022-09-20T09:48:21;100643.56;;;34.60;23.57
38022;BME280;23832;43.216;27.946;2022-09-20T09:50:27;100637.13;;;34.77;22.76
38022;BME280;23832;43.216;27.946;2022-09-20T09:52:29;100638.50;;;34.71;22.42
38022;BME280;23832;43.216;27.946;2022-09-20T09:54:34;100638.22;;;34.64;22.16
38022;BME280;23832;43.216;27.946;2022-09-20T09:56:44;100641.16;;;34.59;22.62
38022;BME280;23832;43.216;27.946;2022-09-20T09:59:01;100643.69;;;34.64;22.70
38022;BME280;23832;43.216;27.946;2022-09-20T10:01:15;100641.22;;;34.71;22.49
38022;BME280;23832;43.216;27.946;2022-09-20T10:03:36;100641.28;;;34.83;22.50
38022;BME280;23832;43.216;27.946;2022-09-20T10:05:50;100642.22;;;34.87;22.09
38022;BME280;23832;43.216;27.946;2022-09-20T10:08:07;100636.09;;;34.69;21.41
38022;BME280;23832;43.216;27.946;2022-09-20T10:10:20;100636.06;;;34.49;21.64
38022;BME280;23832;43.216;27.946;2022-09-20T10:12:40;100634.03;;;34.37;22.41
38022;BME280;23832;43.216;27.946;2022-09-20T10:15:00;100620.69;;;34.35;21.95
38022;BME280;23832;43.216;27.946;2022-09-20T10:17:18;100634.69;;;34.42;21.77
38022;BME280;23832;43.216;27.946;2022-09-20T10:19:38;100617.59;;;34.46;21.98
38022;BME280;23832;43.216;27.946;2022-09-20T10:21:51;100651.06;;;34.51;22.43
38022;BME280;23832;43.216;27.946;2022-09-20T10:24:07;100623.97;;;34.50;21.31
38022;BME280;23832;43.216;27.946;2022-09-20T10:26:25;100625.13;;;34.49;22.10
38022;BME280;23832;43.216;27.946;2022-09-20T10:28:43;100625.13;;;34.49;21.71
38022;BME280;23832;43.216;27.946;2022-09-20T10:30:57;100620.59;;;34.53;21.25
38022;BME280;23832;43.216;27.946;2022-09-20T10:33:10;100625.00;;;34.45;20.72
38022;BME280;23832;43.216;27.946;2022-09-20T10:35:26;100629.44;;;34.29;20.72
38022;BME280;23832;43.216;27.946;2022-09-20T10:37:40;100610.66;;;34.19;21.23
38022;BME280;23832;43.216;27.946;2022-09-20T10:39:47;100614.38;;;34.14;21.47
38022;BME280;23832;43.216;27.946;2022-09-20T10:42:03;100613.28;;;34.15;21.30
38022;BME280;23832;43.216;27.946;2022-09-20T10:44:37;100630.84;;;34.05;21.30
38022;BME280;23832;43.216;27.946;2022-09-20T10:46:52;100612.31;;;34.11;21.77
38022;BME280;23832;43.216;27.946;2022-09-20T10:49:02;100619.34;;;34.21;21.46
38022;BME280;23832;43.216;27.946;2022-09-20T10:51:09;100610.22;;;34.37;21.86
38022;BME280;23832;43.216;27.946;2022-09-20T10:53:27;100615.50;;;34.63;21.77
38022;BME280;23832;43.216;27.946;2022-09-20T10:55:38;100615.31;;;34.89;21.93
38022;BME280;23832;43.216;27.946;2022-09-20T11:00:41;100611.09;;;35.37;21.14
38022;BME280;23832;43.216;27.946;2022-09-20T11:03:02;100620.03;;;35.46;21.05
38022;BME280;23832;43.216;27.946;2022-09-20T11:05:18;100612.63;;;35.47;20.98
38022;BME280;23832;43.216;27.946;2022-09-20T11:07:31;100620.50;;;35.48;20.89
38022;BME280;23832;43.216;27.946;2022-09-20T11:09:42;100614.34;;;35.51;20.67
38022;BME280;23832;43.216;27.946;2022-09-20T11:11:46;100613.19;;;35.52;20.41
38022;BME280;23832;43.216;27.946;2022-09-20T11:13:57;100614.56;;;35.59;20.83
38022;BME280;23832;43.216;27.946;2022-09-20T11:16:04;100614.34;;;35.64;20.81
38022;BME280;23832;43.216;27.946;2022-09-20T11:18:13;100619.03;;;35.63;20.20
38022;BME280;23832;43.216;27.946;2022-09-20T11:20:25;100611.59;;;35.64;20.09
38022;BME280;23832;43.216;27.946;2022-09-20T11:22:33;100618.13;;;35.71;20.55
38022;BME280;23832;43.216;27.946;2022-09-20T11:24:44;100625.78;;;35.78;20.32
38022;BME280;23832;43.216;27.946;2022-09-20T11:26:51;100599.03;;;35.75;20.34
38022;BME280;23832;43.216;27.946;2022-09-20T11:29:00;100600.53;;;35.72;20.73
38022;BME280;23832;43.216;27.946;2022-09-20T11:31:07;100596.06;;;35.80;20.85
38022;BME280;23832;43.216;27.946;2022-09-20T11:33:18;100598.03;;;35.92;20.07
38022;BME280;23832;43.216;27.946;2022-09-20T11:35:27;100595.84;;;35.97;20.24
38022;BME280;23832;43.216;27.946;2022-09-20T11:37:33;100588.75;;;36.08;20.08
38022;BME280;23832;43.216;27.946;2022-09-20T11:39:41;100584.13;;;36.25;20.67
38022;BME280;23832;43.216;27.946;2022-09-20T11:41:45;100586.38;;;36.35;19.98
38022;BME280;23832;43.216;27.946;2022-09-20T11:43:48;100595.69;;;36.18;19.81